Wetterdaten: Woche 10.10.16 - 16.10.16 (KW41)
Datum Zeit Temp. A. Feuchte A. Luftdruck Regen Wind Richtung Taupunkt Windchill Windben
10.10.2016 00:00 5,8 C 83 % 1023,5 hPa 0,0 l/m 0,0 km/h N 3,1 C 5,8 C 0,0 km/h
10.10.2016 01:00 6,1 C 83 % 1023,4 hPa 0,0 l/m 0,0 km/h N 3,5 C 6,1 C 0,0 km/h
10.10.2016 02:00 6,5 C 83 % 1023,3 hPa 0,0 l/m 0,0 km/h N 3,9 C 6,5 C 0,4 km/h
10.10.2016 03:00 6,7 C 83 % 1023,0 hPa 0,0 l/m 0,0 km/h N 4,0 C 6,7 C 0,4 km/h
10.10.2016 04:00 6,9 C 83 % 1022,7 hPa 0,0 l/m 0,0 km/h N 4,2 C 6,9 C 0,0 km/h
10.10.2016 05:00 6,8 C 83 % 1022,7 hPa 0,0 l/m 0,0 km/h N 4,1 C 6,8 C 0,0 km/h
10.10.2016 06:00 6,7 C 83 % 1022,6 hPa 0,0 l/m 0,0 km/h N 4,0 C 6,7 C 0,0 km/h
10.10.2016 07:00 6,8 C 83 % 1022,8 hPa 0,0 l/m 0,3 km/h N 4,2 C 6,8 C 3,2 km/h
10.10.2016 08:00 7,6 C 83 % 1023,1 hPa 0,0 l/m 0,8 km/h N 4,9 C 7,6 C 6,8 km/h
10.10.2016 09:00 8,2 C 83 % 1023,1 hPa 0,0 l/m 3,1 km/h N 5,4 C 8,2 C 10,1 km/h
10.10.2016 10:00 8,6 C 81 % 1022,9 hPa 0,0 l/m 2,5 km/h N 5,5 C 8,6 C 12,9 km/h
10.10.2016 11:00 9,2 C 80 % 1022,9 hPa 0,0 l/m 1,8 km/h N 5,9 C 9,2 C 8,9 km/h
10.10.2016 12:00 9,6 C 80 % 1022,4 hPa 0,0 l/m 3,7 km/h N 6,3 C 9,6 C 14,1 km/h
10.10.2016 13:00 10,1 C 79 % 1021,6 hPa 0,0 l/m 4,3 km/h N 6,5 C 10,1 C 14,5 km/h
10.10.2016 14:00 10,2 C 78 % 1021,1 hPa 0,0 l/m 4,1 km/h N 6,5 C 10,2 C 10,9 km/h
10.10.2016 15:00 10,6 C 78 % 1020,5 hPa 0,0 l/m 3,4 km/h N 6,9 C 10,6 C 13,3 km/h
10.10.2016 16:00 10,4 C 78 % 1020,0 hPa 0,0 l/m 2,2 km/h N 6,8 C 10,4 C 12,9 km/h
10.10.2016 17:00 10,3 C 77 % 1019,8 hPa 0,0 l/m 1,1 km/h N 6,5 C 10,3 C 8,9 km/h
10.10.2016 18:00 9,9 C 78 % 1019,9 hPa 0,3 l/m 0,2 km/h N 6,2 C 9,9 C 5,2 km/h
10.10.2016 19:00 9,4 C 82 % 1019,8 hPa 0,3 l/m 0,4 km/h N 6,4 C 9,4 C 5,2 km/h
10.10.2016 20:00 8,9 C 83 % 1019,5 hPa 0,0 l/m 1,1 km/h N 6,2 C 8,9 C 7,2 km/h
10.10.2016 21:00 8,7 C 83 % 1019,4 hPa 0,0 l/m 0,8 km/h N 6,0 C 8,7 C 6,4 km/h
10.10.2016 22:00 8,5 C 83 % 1019,2 hPa 0,0 l/m 1,6 km/h N 5,8 C 8,5 C 7,6 km/h
10.10.2016 23:00 8,3 C 82 % 1019,2 hPa 1,0 l/m 0,6 km/h N 5,4 C 8,3 C 3,2 km/h
11.10.2016 00:00 7,9 C 83 % 1019,0 hPa 0,5 l/m 0,9 km/h N 5,1 C 7,9 C 7,7 km/h
11.10.2016 01:00 7,5 C 83 % 1018,7 hPa 0,0 l/m 0,3 km/h N 4,9 C 7,5 C 3,6 km/h
11.10.2016 02:00 7,2 C 83 % 1018,5 hPa 0,0 l/m 0,0 km/h N 4,5 C 7,2 C 0,4 km/h
11.10.2016 03:00 7,1 C 83 % 1017,9 hPa 0,5 l/m 0,0 km/h N 4,4 C 7,1 C 0,4 km/h
11.10.2016 04:00 7,0 C 83 % 1017,6 hPa 0,0 l/m 0,9 km/h N 4,4 C 7,0 C 5,6 km/h
11.10.2016 05:00 6,8 C 83 % 1017,3 hPa 0,0 l/m 0,4 km/h N 4,1 C 6,8 C 4,8 km/h
11.10.2016 06:00 6,4 C 83 % 1017,0 hPa 0,0 l/m 1,2 km/h N 3,7 C 6,4 C 7,6 km/h
11.10.2016 07:00 6,3 C 83 % 1017,0 hPa 0,0 l/m 1,5 km/h N 3,6 C 6,3 C 7,2 km/h
11.10.2016 08:00 6,5 C 83 % 1017,0 hPa 0,0 l/m 2,2 km/h N 3,8 C 6,5 C 9,7 km/h
11.10.2016 09:00 6,7 C 83 % 1017,0 hPa 0,3 l/m 2,3 km/h N 4,0 C 6,7 C 8,4 km/h
11.10.2016 10:00 7,0 C 83 % 1016,8 hPa 0,0 l/m 2,6 km/h N 4,3 C 7,0 C 10,1 km/h
11.10.2016 11:00 7,2 C 83 % 1016,6 hPa 0,3 l/m 2,9 km/h N 4,5 C 7,2 C 11,3 km/h
11.10.2016 12:00 7,3 C 83 % 1016,3 hPa 0,0 l/m 2,8 km/h N 4,6 C 7,3 C 12,5 km/h
11.10.2016 13:00 8,1 C 82 % 1015,5 hPa 0,0 l/m 2,8 km/h N 5,2 C 8,1 C 12,1 km/h
11.10.2016 14:00 8,5 C 80 % 1015,1 hPa 0,0 l/m 3,5 km/h N 5,2 C 8,5 C 15,7 km/h
11.10.2016 15:00 8,5 C 79 % 1014,8 hPa 0,0 l/m 5,0 km/h N 5,0 C 8,4 C 16,9 km/h
11.10.2016 16:00 8,2 C 78 % 1014,7 hPa 0,0 l/m 4,6 km/h N 4,5 C 8,2 C 16,5 km/h
11.10.2016 17:00 7,6 C 79 % 1014,5 hPa 0,0 l/m 3,8 km/h N 4,1 C 7,6 C 15,7 km/h
11.10.2016 18:00 6,9 C 81 % 1014,5 hPa 0,0 l/m 1,4 km/h N 3,9 C 6,9 C 8,4 km/h
11.10.2016 19:00 6,7 C 82 % 1014,5 hPa 0,0 l/m 3,0 km/h N 3,9 C 6,7 C 11,7 km/h
11.10.2016 20:00 6,8 C 83 % 1014,5 hPa 0,5 l/m 2,8 km/h N 4,1 C 6,8 C 12,5 km/h
11.10.2016 21:00 6,4 C 83 % 1014,5 hPa 0,0 l/m 4,1 km/h N 3,7 C 6,4 C 13,7 km/h
11.10.2016 22:00 6,3 C 84 % 1014,0 hPa 0,0 l/m 5,9 km/h N 3,7 C 6,1 C 16,5 km/h
11.10.2016 23:00 6,3 C 83 % 1013,5 hPa 0,0 l/m 6,8 km/h N 3,6 C 5,6 C 18,9 km/h
12.10.2016 00:00 6,3 C 83 % 1013,3 hPa 0,0 l/m 7,1 km/h N 3,6 C 5,5 C 19,7 km/h
12.10.2016 01:00 6,3 C 83 % 1013,1 hPa 0,0 l/m 7,6 km/h N 3,6 C 5,0 C 19,7 km/h
12.10.2016 02:00 6,2 C 83 % 1012,7 hPa 0,0 l/m 6,6 km/h N 3,5 C 5,9 C 16,9 km/h
12.10.2016 03:00 6,3 C 84 % 1012,6 hPa 0,0 l/m 6,4 km/h N 3,7 C 5,8 C 17,7 km/h
12.10.2016 04:00 6,3 C 84 % 1012,5 hPa 0,3 l/m 5,3 km/h N 3,8 C 6,3 C 16,1 km/h
12.10.2016 05:00 6,3 C 84 % 1012,6 hPa 0,3 l/m 6,8 km/h N 3,8 C 5,8 C 18,5 km/h
12.10.2016 06:00 6,1 C 84 % 1012,8 hPa 0,5 l/m 7,5 km/h N 3,5 C 5,2 C 17,3 km/h
12.10.2016 07:00 6,0 C 84 % 1013,0 hPa 0,5 l/m 5,9 km/h N 3,4 C 5,8 C 16,5 km/h
12.10.2016 08:00 6,3 C 83 % 1013,3 hPa 0,3 l/m 6,4 km/h N 3,6 C 6,0 C 16,1 km/h
12.10.2016 09:00 6,4 C 83 % 1013,8 hPa 0,3 l/m 6,4 km/h N 3,7 C 6,2 C 17,7 km/h
12.10.2016 10:00 6,6 C 83 % 1014,2 hPa 0,0 l/m 6,3 km/h N 4,0 C 6,4 C 19,7 km/h
12.10.2016 11:00 6,8 C 83 % 1014,5 hPa 0,0 l/m 8,0 km/h N 4,1 C 5,6 C 20,5 km/h
12.10.2016 12:00 7,1 C 83 % 1014,9 hPa 0,0 l/m 8,3 km/h N 4,5 C 5,6 C 20,9 km/h
12.10.2016 13:00 7,3 C 83 % 1015,0 hPa 0,0 l/m 6,6 km/h N 4,6 C 7,1 C 19,7 km/h
12.10.2016 14:00 7,7 C 84 % 1015,2 hPa 0,0 l/m 8,6 km/h N 5,1 C 6,0 C 23,7 km/h
12.10.2016 15:00 8,0 C 83 % 1015,2 hPa 0,0 l/m 9,7 km/h N 5,3 C 5,7 C 24,1 km/h
12.10.2016 16:00 8,2 C 82 % 1015,1 hPa 0,0 l/m 10,6 km/h N 5,2 C 5,3 C 26,5 km/h
12.10.2016 17:00 8,2 C 81 % 1015,5 hPa 0,0 l/m 11,8 km/h N 5,2 C 4,6 C 27,8 km/h
12.10.2016 18:00 8,1 C 81 % 1016,1 hPa 0,0 l/m 11,3 km/h N 5,0 C 4,7 C 27,4 km/h
12.10.2016 19:00 8,0 C 81 % 1016,2 hPa 0,0 l/m 10,8 km/h N 5,0 C 5,0 C 26,5 km/h
12.10.2016 20:00 7,8 C 81 % 1016,1 hPa 0,0 l/m 8,0 km/h N 4,7 C 6,6 C 22,1 km/h
12.10.2016 21:00 7,8 C 82 % 1016,3 hPa 0,0 l/m 7,2 km/h N 4,9 C 7,1 C 20,9 km/h
12.10.2016 22:00 8,0 C 82 % 1016,4 hPa 0,0 l/m 7,0 km/h N 5,1 C 7,2 C 19,3 km/h
12.10.2016 23:00 8,1 C 81 % 1016,6 hPa 0,0 l/m 6,5 km/h N 5,1 C 7,5 C 20,9 km/h
13.10.2016 00:00 8,1 C 81 % 1016,7 hPa 0,0 l/m 5,8 km/h N 5,1 C 7,8 C 16,5 km/h
13.10.2016 01:00 7,9 C 82 % 1016,8 hPa 0,0 l/m 4,8 km/h N 5,0 C 7,8 C 14,9 km/h
13.10.2016 02:00 8,1 C 82 % 1016,8 hPa 0,0 l/m 6,1 km/h N 5,2 C 8,0 C 18,1 km/h
13.10.2016 03:00 8,0 C 82 % 1016,8 hPa 0,0 l/m 5,2 km/h N 5,1 C 7,7 C 14,5 km/h
13.10.2016 04:00 7,9 C 82 % 1016,8 hPa 0,0 l/m 4,4 km/h N 5,1 C 7,9 C 14,1 km/h
13.10.2016 05:00 7,8 C 83 % 1017,0 hPa 0,0 l/m 5,0 km/h N 5,1 C 7,8 C 14,9 km/h
13.10.2016 06:00 7,7 C 83 % 1017,2 hPa 0,0 l/m 2,8 km/h N 5,0 C 7,7 C 8,8 km/h
13.10.2016 07:00 7,4 C 83 % 1017,2 hPa 0,0 l/m 1,3 km/h N 4,8 C 7,4 C 7,2 km/h
13.10.2016 08:00 7,6 C 83 % 1017,6 hPa 0,0 l/m 2,3 km/h N 4,9 C 7,6 C 8,9 km/h
13.10.2016 09:00 8,0 C 83 % 1018,0 hPa 0,0 l/m 2,5 km/h N 5,3 C 8,0 C 9,3 km/h
13.10.2016 10:00 8,4 C 83 % 1018,5 hPa 0,0 l/m 2,4 km/h N 5,6 C 8,4 C 8,8 km/h
13.10.2016 11:00 8,6 C 83 % 1018,5 hPa 0,0 l/m 1,0 km/h N 5,8 C 8,6 C 6,4 km/h
13.10.2016 12:00 10,1 C 79 % 1018,2 hPa 0,0 l/m 0,3 km/h N 6,6 C 10,1 C 4,4 km/h
13.10.2016 13:00 10,4 C 76 % 1018,0 hPa 0,0 l/m 0,3 km/h N 6,4 C 10,4 C 4,4 km/h
13.10.2016 14:00 10,5 C 76 % 1017,5 hPa 0,0 l/m 0,4 km/h N 6,5 C 10,5 C 6,0 km/h
13.10.2016 15:00 11,1 C 75 % 1017,3 hPa 0,0 l/m 0,6 km/h N 6,7 C 11,1 C 7,2 km/h
13.10.2016 16:00 10,5 C 76 % 1017,5 hPa 0,0 l/m 0,7 km/h N 6,5 C 10,5 C 7,6 km/h
13.10.2016 17:00 10,2 C 78 % 1017,7 hPa 0,0 l/m 0,2 km/h N 6,5 C 10,2 C 4,0 km/h
13.10.2016 18:00 9,9 C 79 % 1017,7 hPa 0,0 l/m 0,0 km/h N 6,4 C 9,9 C 2,0 km/h
13.10.2016 19:00 9,6 C 80 % 1017,9 hPa 0,0 l/m 0,0 km/h N 6,3 C 9,6 C 1,6 km/h
13.10.2016 20:00 9,3 C 81 % 1018,0 hPa 0,0 l/m 0,3 km/h N 6,1 C 9,3 C 4,4 km/h
13.10.2016 21:00 9,0 C 81 % 1018,0 hPa 0,0 l/m 0,4 km/h N 5,9 C 9,0 C 4,0 km/h
13.10.2016 22:00 8,8 C 82 % 1017,8 hPa 0,0 l/m 0,0 km/h N 5,8 C 8,8 C 0,4 km/h
13.10.2016 23:00 8,8 C 82 % 1017,6 hPa 0,0 l/m 1,5 km/h N 5,9 C 8,8 C 8,0 km/h
14.10.2016 00:00 8,8 C 81 % 1017,3 hPa 0,0 l/m 3,0 km/h N 5,7 C 8,8 C 10,5 km/h
14.10.2016 01:00 8,5 C 81 % 1016,8 hPa 0,0 l/m 2,3 km/h N 5,5 C 8,5 C 8,0 km/h
14.10.2016 02:00 8,0 C 82 % 1016,7 hPa 0,0 l/m 2,0 km/h N 5,1 C 8,0 C 10,9 km/h
14.10.2016 03:00 7,5 C 83 % 1016,6 hPa 0,0 l/m 1,4 km/h N 4,8 C 7,5 C 8,9 km/h
14.10.2016 04:00 7,1 C 83 % 1016,7 hPa 0,0 l/m 0,7 km/h N 4,4 C 7,1 C 7,6 km/h
14.10.2016 05:00 7,0 C 83 % 1016,4 hPa 0,0 l/m 2,0 km/h N 4,4 C 7,0 C 9,3 km/h
14.10.2016 06:00 7,2 C 84 % 1016,6 hPa 0,0 l/m 3,2 km/h N 4,6 C 7,2 C 10,5 km/h
14.10.2016 07:00 7,3 C 83 % 1016,6 hPa 0,0 l/m 2,6 km/h N 4,6 C 7,3 C 11,7 km/h
14.10.2016 08:00 7,8 C 83 % 1016,7 hPa 0,0 l/m 3,2 km/h N 5,0 C 7,8 C 11,7 km/h
14.10.2016 09:00 8,9 C 82 % 1016,8 hPa 0,0 l/m 4,3 km/h N 6,0 C 8,9 C 18,1 km/h
14.10.2016 10:00 10,8 C 79 % 1016,4 hPa 0,0 l/m 4,1 km/h N 7,2 C 10,8 C 18,5 km/h
14.10.2016 11:00 12,4 C 73 % 1016,1 hPa 0,0 l/m 4,4 km/h N 7,6 C 12,4 C 15,3 km/h
14.10.2016 12:00 12,6 C 71 % 1016,1 hPa 0,0 l/m 4,7 km/h N 7,4 C 12,6 C 18,5 km/h
14.10.2016 13:00 13,7 C 69 % 1015,6 hPa 0,0 l/m 5,1 km/h N 8,1 C 13,7 C 18,1 km/h
14.10.2016 14:00 14,9 C 65 % 1014,8 hPa 0,0 l/m 4,3 km/h N 8,5 C 14,9 C 14,9 km/h
14.10.2016 15:00 15,1 C 63 % 1014,9 hPa 0,0 l/m 5,4 km/h N 8,2 C 15,1 C 18,9 km/h
14.10.2016 16:00 14,7 C 63 % 1014,7 hPa 0,0 l/m 5,5 km/h N 7,7 C 14,7 C 19,7 km/h
14.10.2016 17:00 13,8 C 65 % 1014,8 hPa 0,0 l/m 4,9 km/h N 7,3 C 13,8 C 15,3 km/h
14.10.2016 18:00 13,1 C 68 % 1015,1 hPa 0,0 l/m 3,8 km/h N 7,3 C 13,1 C 14,5 km/h
14.10.2016 19:00 12,5 C 72 % 1015,8 hPa 0,0 l/m 2,7 km/h N 7,6 C 12,5 C 11,3 km/h
14.10.2016 20:00 12,3 C 73 % 1015,8 hPa 0,0 l/m 2,1 km/h N 7,6 C 12,3 C 12,9 km/h
14.10.2016 21:00 12,2 C 74 % 1015,5 hPa 0,0 l/m 2,1 km/h N 7,6 C 12,2 C 8,4 km/h
14.10.2016 22:00 11,6 C 76 % 1015,8 hPa 0,0 l/m 3,2 km/h N 7,5 C 11,6 C 14,1 km/h
14.10.2016 23:00 11,3 C 77 % 1015,5 hPa 0,0 l/m 4,1 km/h N 7,4 C 11,3 C 13,7 km/h
15.10.2016 00:00 10,8 C 78 % 1015,9 hPa 0,0 l/m 1,9 km/h N 7,1 C 10,8 C 9,3 km/h
15.10.2016 01:00 10,6 C 79 % 1015,5 hPa 0,0 l/m 2,0 km/h N 7,1 C 10,6 C 8,9 km/h
15.10.2016 02:00 10,2 C 79 % 1015,0 hPa 0,0 l/m 1,7 km/h N 6,8 C 10,2 C 9,6 km/h
15.10.2016 03:00 9,6 C 81 % 1015,0 hPa 0,0 l/m 1,0 km/h N 6,5 C 9,6 C 8,0 km/h
15.10.2016 04:00 9,3 C 81 % 1014,8 hPa 0,0 l/m 0,4 km/h N 6,2 C 9,3 C 6,0 km/h
15.10.2016 05:00 9,5 C 80 % 1014,7 hPa 0,0 l/m 1,4 km/h N 6,3 C 9,5 C 9,3 km/h
15.10.2016 06:00 9,1 C 81 % 1014,3 hPa 0,0 l/m 1,0 km/h N 6,0 C 9,1 C 7,3 km/h
15.10.2016 07:00 8,9 C 82 % 1012,9 hPa 0,0 l/m 2,3 km/h N 6,0 C 8,9 C 13,3 km/h
15.10.2016 08:00 9,1 C 82 % 1013,3 hPa 0,0 l/m 2,3 km/h N 6,2 C 9,1 C 8,9 km/h
15.10.2016 09:00 9,5 C 82 % 1014,1 hPa 0,0 l/m 1,6 km/h N 6,5 C 9,5 C 8,0 km/h
15.10.2016 10:00 10,7 C 81 % 1014,5 hPa 0,0 l/m 2,0 km/h N 7,5 C 10,7 C 10,1 km/h
15.10.2016 11:00 13,2 C 75 % 1014,7 hPa 0,0 l/m 1,4 km/h N 8,9 C 13,2 C 7,2 km/h
15.10.2016 12:00 15,3 C 70 % 1014,8 hPa 0,0 l/m 1,8 km/h N 9,7 C 15,3 C 9,3 km/h
15.10.2016 13:00 14,9 C 71 % 1014,7 hPa 0,0 l/m 2,0 km/h N 9,7 C 14,9 C 9,3 km/h
15.10.2016 14:00 15,9 C 71 % 1014,5 hPa 0,0 l/m 0,9 km/h N 10,6 C 15,9 C 7,6 km/h
15.10.2016 15:00 16,0 C 70 % 1014,5 hPa 0,0 l/m 0,9 km/h N 10,6 C 16,0 C 6,0 km/h
15.10.2016 16:00 15,2 C 74 % 1015,0 hPa 0,0 l/m 0,0 km/h N 10,5 C 15,2 C 0,4 km/h
15.10.2016 17:00 14,6 C 78 % 1015,5 hPa 0,0 l/m 0,0 km/h N 10,7 C 14,6 C 0,0 km/h
15.10.2016 18:00 13,3 C 79 % 1016,3 hPa 0,0 l/m 0,0 km/h N 9,6 C 13,3 C 0,8 km/h
15.10.2016 19:00 11,9 C 81 % 1016,9 hPa 0,0 l/m 0,0 km/h N 8,7 C 11,9 C 0,0 km/h
15.10.2016 20:00 11,3 C 83 % 1017,1 hPa 0,0 l/m 0,0 km/h N 8,5 C 11,3 C 1,2 km/h
15.10.2016 21:00 11,9 C 83 % 1017,5 hPa 0,0 l/m 0,6 km/h N 9,1 C 11,9 C 4,0 km/h
15.10.2016 22:00 12,1 C 83 % 1018,0 hPa 0,0 l/m 0,0 km/h N 9,3 C 12,1 C 2,4 km/h
15.10.2016 23:00 12,1 C 83 % 1018,3 hPa 0,0 l/m 0,0 km/h N 9,3 C 12,1 C 0,8 km/h
16.10.2016 00:00 11,4 C 83 % 1018,4 hPa 0,0 l/m 0,0 km/h N 8,6 C 11,4 C 0,4 km/h
16.10.2016 01:00 11,0 C 83 % 1018,7 hPa 0,0 l/m 0,0 km/h N 8,3 C 11,0 C 0,8 km/h
16.10.2016 02:00 10,4 C 83 % 1019,1 hPa 0,0 l/m 0,0 km/h N 7,7 C 10,4 C 0,0 km/h
16.10.2016 03:00 9,9 C 83 % 1019,4 hPa 0,0 l/m 0,0 km/h N 7,2 C 9,9 C 0,0 km/h
16.10.2016 04:00 10,7 C 83 % 1019,7 hPa 0,0 l/m 0,0 km/h N 8,0 C 10,7 C 1,2 km/h
16.10.2016 05:00 11,7 C 83 % 1020,1 hPa 0,0 l/m 0,1 km/h N 8,9 C 11,7 C 2,4 km/h
16.10.2016 06:00 12,1 C 83 % 1020,3 hPa 0,0 l/m 2,5 km/h N 9,3 C 12,1 C 8,0 km/h
16.10.2016 07:00 12,0 C 83 % 1020,7 hPa 0,0 l/m 1,5 km/h N 9,2 C 12,0 C 7,2 km/h
16.10.2016 08:00 12,8 C 83 % 1021,1 hPa 0,0 l/m 3,2 km/h N 10,0 C 12,8 C 12,9 km/h
16.10.2016 09:00 14,0 C 81 % 1021,7 hPa 0,0 l/m 4,0 km/h N 10,8 C 14,0 C 15,7 km/h
16.10.2016 10:00 15,1 C 78 % 1021,8 hPa 0,0 l/m 5,6 km/h N 11,3 C 14,9 C 17,7 km/h
16.10.2016 11:00 15,9 C 75 % 1022,0 hPa 0,0 l/m 7,2 km/h N 11,5 C 15,4 C 21,3 km/h
16.10.2016 12:00 17,1 C 71 % 1022,1 hPa 0,0 l/m 3,8 km/h N 11,8 C 17,1 C 13,3 km/h
16.10.2016 13:00 17,9 C 66 % 1022,0 hPa 0,0 l/m 4,0 km/h N 11,5 C 17,9 C 15,7 km/h
16.10.2016 14:00 18,3 C 62 % 1022,0 hPa 0,0 l/m 5,1 km/h N 10,7 C 18,2 C 17,7 km/h
16.10.2016 15:00 18,1 C 63 % 1022,1 hPa 0,0 l/m 3,0 km/h N 10,9 C 18,1 C 13,3 km/h
16.10.2016 16:00 17,5 C 66 % 1022,1 hPa 0,0 l/m 0,6 km/h N 10,9 C 17,5 C 6,8 km/h
16.10.2016 17:00 17,1 C 67 % 1022,2 hPa 0,0 l/m 0,4 km/h N 10,8 C 17,1 C 4,4 km/h
16.10.2016 18:00 15,3 C 71 % 1022,6 hPa 0,0 l/m 0,0 km/h N 10,0 C 15,3 C 0,0 km/h
16.10.2016 19:00 12,6 C 76 % 1023,2 hPa 0,0 l/m 0,0 km/h N 8,5 C 12,6 C 0,0 km/h
16.10.2016 20:00 11,1 C 81 % 1023,8 hPa 0,0 l/m 0,0 km/h N 8,0 C 11,1 C 0,0 km/h
16.10.2016 21:00 10,0 C 82 % 1024,3 hPa 0,0 l/m 0,0 km/h N 7,1 C 10,0 C 0,4 km/h
16.10.2016 22:00 9,0 C 83 % 1024,8 hPa 0,0 l/m 0,0 km/h N 6,3 C 9,0 C 0,0 km/h
16.10.2016 23:00 8,3 C 83 % 1025,1 hPa 0,0 l/m 0,0 km/h N 5,5 C 8,3 C 0,0 km/h
Min-Datum _ 10.10.16 16.10.16 12.10.16 - 10.10.16 - 10.10.16 12.10.16 10.10.16
_ Min-Zeit 00:00 14:15 04:45 - 00:00 - 00:00 17:45 00:00
Minimum _ 5,7 C 61 % 1012,4 hPa - 0,0 km/h - 3,0 C 3,3 C 0,0 km/h
Max-Datum _ 16.10.16 11.10.16 16.10.16 10.10.16 12.10.16 - 16.10.16 16.10.16 14.10.16
_ Max-Zeit 14:00 22:30 23:30 23:30 17:45 - 12:45 14:15 10:45
Maximum _ 18,3 C 84 % 1025,2 hPa 1,0 l/m 14,2 km/h
N
- 12,1 C 18,3 C 38,6 km/h
N
Durchschnitt _ 9,6 C 80 % 1017,5 hPa #5,7 l/m 2,8 km/h N 6,2 C 9,5 C 10,2 km/h